CAK3 weather

Delta Heritage Air Park
Delta, British Columbia, Canada

Public forecast

Using degrees Celsius for public forecast. Weather courtesy of forecast.io.

Closest aviation weather report (METAR) to Delta Heritage Air Park

Closest report is Vancouver International Airport, 11.8 nm (21.9 km) NW. Retrieved 2019/10/14 14:00 UTC (42 minutes ago):

CYVR 141400Z 10005KT 20SM FEW025 BKN064 BKN077 08/06 A3009 RMK SC1SC6AC1 SC TR SLP191

Closest aviation forecast (TAF) to Delta Heritage Air Park

Closest forecast is Vancouver International Airport, 11.8 nm (21.9 km) NW. Retrieved 2019/10/14 15:44 UTC (0 seconds ago):

TAF CYVR 141440Z 1415/1518 09005KT P6SM FEW020 BKN060 TEMPO 1415/1419 BKN020 BKN060 FM141900 12010KT P6SM BKN030 BKN140 FM142200 16008KT P6SM SCT030 BKN120 FM150000 16008KT P6SM FEW040 BKN100 BKN220 FM150300 VRB03KT P6SM OVC100 RMK NXT FCST BY 141800Z